Airport View

Enter AWOS ICAO identifier for current METAR.

ex. KFNL

KPSN 191855Z AUTO 18010G15KT 10SM CLR 32/23 A2983 RMK AO2 T03230240

19 Jun 2019 19:09

Frequency: 118.025

Phone: 903-729-3641

Other Area AWOS: KF44 - KJSO - KDKR - KTYR

TAF KTYR 191737Z 1918/2018 21012KT P6SM SCT030 TEMPO 1918/1920 BKN020 FM192100 20012KT P6SM VCTS BKN040CB TEMPO 2001/2005 VRB25G50KT 1SM +TSRA BR OVC020CB FM200600 21008KT P6SM SCT080 BKN150 FM201000 22010KT P6SM BKN015 FM201400 23012G20KT P6SM SCT030